sensor_id;sensor_type;location;lat;lon;timestamp;P1;durP1;ratioP1;P2;durP2;ratioP2
18838;SDS011;9548;56.920;14.804;2023-02-24T00:01:40;9.27;;;4.80;;
18838;SDS011;9548;56.920;14.804;2023-02-24T00:04:15;8.52;;;4.43;;
18838;SDS011;9548;56.920;14.804;2023-02-24T00:06:42;8.55;;;3.90;;
18838;SDS011;9548;56.920;14.804;2023-02-24T00:09:11;8.60;;;4.25;;
18838;SDS011;9548;56.920;14.804;2023-02-24T00:11:40;7.15;;;3.92;;
18838;SDS011;9548;56.920;14.804;2023-02-24T00:14:09;7.20;;;3.85;;
18838;SDS011;9548;56.920;14.804;2023-02-24T00:16:40;8.32;;;4.18;;
18838;SDS011;9548;56.920;14.804;2023-02-24T00:19:09;9.77;;;4.43;;
18838;SDS011;9548;56.920;14.804;2023-02-24T00:21:38;7.72;;;3.80;;
18838;SDS011;9548;56.920;14.804;2023-02-24T00:24:06;7.47;;;3.72;;
18838;SDS011;9548;56.920;14.804;2023-02-24T00:26:34;6.97;;;3.78;;
18838;SDS011;9548;56.920;14.804;2023-02-24T00:29:02;6.35;;;3.63;;
18838;SDS011;9548;56.920;14.804;2023-02-24T00:31:31;5.78;;;3.40;;
18838;SDS011;9548;56.920;14.804;2023-02-24T00:33:58;7.80;;;3.70;;
18838;SDS011;9548;56.920;14.804;2023-02-24T00:36:27;6.25;;;3.38;;
18838;SDS011;9548;56.920;14.804;2023-02-24T00:38:59;5.25;;;3.05;;
18838;SDS011;9548;56.920;14.804;2023-02-24T00:41:34;6.43;;;2.88;;
18838;SDS011;9548;56.920;14.804;2023-02-24T00:44:02;4.90;;;3.25;;
18838;SDS011;9548;56.920;14.804;2023-02-24T00:46:33;4.88;;;3.10;;
18838;SDS011;9548;56.920;14.804;2023-02-24T00:49:01;6.53;;;3.15;;
18838;SDS011;9548;56.920;14.804;2023-02-24T00:51:31;4.28;;;2.80;;
18838;SDS011;9548;56.920;14.804;2023-02-24T00:54:02;6.85;;;3.53;;
18838;SDS011;9548;56.920;14.804;2023-02-24T00:56:30;6.65;;;3.45;;
18838;SDS011;9548;56.920;14.804;2023-02-24T00:58:57;5.40;;;3.05;;
18838;SDS011;9548;56.920;14.804;2023-02-24T01:01:26;6.15;;;3.20;;
18838;SDS011;9548;56.920;14.804;2023-02-24T01:03:54;7.38;;;3.22;;
18838;SDS011;9548;56.920;14.804;2023-02-24T01:06:22;5.53;;;3.13;;
18838;SDS011;9548;56.920;14.804;2023-02-24T01:08:53;4.72;;;2.80;;
18838;SDS011;9548;56.920;14.804;2023-02-24T01:11:23;4.32;;;2.78;;
18838;SDS011;9548;56.920;14.804;2023-02-24T01:14:10;4.15;;;2.53;;
18838;SDS011;9548;56.920;14.804;2023-02-24T01:16:39;5.28;;;2.50;;
18838;SDS011;9548;56.920;14.804;2023-02-24T01:19:08;3.63;;;2.38;;
18838;SDS011;9548;56.920;14.804;2023-02-24T01:21:36;3.63;;;2.40;;
18838;SDS011;9548;56.920;14.804;2023-02-24T01:24:04;4.03;;;2.40;;
18838;SDS011;9548;56.920;14.804;2023-02-24T01:26:32;4.20;;;2.15;;
18838;SDS011;9548;56.920;14.804;2023-02-24T01:28:59;2.65;;;1.98;;
18838;SDS011;9548;56.920;14.804;2023-02-24T01:31:28;3.20;;;2.17;;
18838;SDS011;9548;56.920;14.804;2023-02-24T01:33:55;4.45;;;2.10;;
18838;SDS011;9548;56.920;14.804;2023-02-24T01:36:23;5.18;;;1.90;;
18838;SDS011;9548;56.920;14.804;2023-02-24T01:38:51;3.30;;;2.00;;
18838;SDS011;9548;56.920;14.804;2023-02-24T01:41:19;4.20;;;2.22;;
18838;SDS011;9548;56.920;14.804;2023-02-24T01:43:58;4.88;;;2.70;;
18838;SDS011;9548;56.920;14.804;2023-02-24T01:46:28;3.88;;;2.50;;
18838;SDS011;9548;56.920;14.804;2023-02-24T01:48:56;2.92;;;2.08;;
18838;SDS011;9548;56.920;14.804;2023-02-24T01:51:28;3.85;;;2.10;;
18838;SDS011;9548;56.920;14.804;2023-02-24T01:53:59;4.05;;;1.95;;
18838;SDS011;9548;56.920;14.804;2023-02-24T01:56:27;3.70;;;1.95;;
18838;SDS011;9548;56.920;14.804;2023-02-24T01:58:56;2.13;;;1.40;;
18838;SDS011;9548;56.920;14.804;2023-02-24T02:01:26;2.97;;;1.90;;
18838;SDS011;9548;56.920;14.804;2023-02-24T02:03:54;3.25;;;1.65;;
18838;SDS011;9548;56.920;14.804;2023-02-24T02:06:28;2.08;;;1.50;;
18838;SDS011;9548;56.920;14.804;2023-02-24T02:08:55;1.52;;;1.15;;
18838;SDS011;9548;56.920;14.804;2023-02-24T02:11:23;2.13;;;1.15;;
18838;SDS011;9548;56.920;14.804;2023-02-24T02:13:51;1.63;;;1.08;;
18838;SDS011;9548;56.920;14.804;2023-02-24T02:19:23;2.03;;;1.15;;
18838;SDS011;9548;56.920;14.804;2023-02-24T02:25:10;1.88;;;1.30;;
18838;SDS011;9548;56.920;14.804;2023-02-24T02:27:47;2.15;;;1.40;;
18838;SDS011;9548;56.920;14.804;2023-02-24T02:36:39;1.27;;;1.17;;
18838;SDS011;9548;56.920;14.804;2023-02-24T02:39:20;2.38;;;1.52;;
18838;SDS011;9548;56.920;14.804;2023-02-24T02:41:58;1.85;;;1.50;;
18838;SDS011;9548;56.920;14.804;2023-02-24T02:44:33;2.20;;;1.40;;
18838;SDS011;9548;56.920;14.804;2023-02-24T02:47:05;2.85;;;1.95;;
18838;SDS011;9548;56.920;14.804;2023-02-24T02:49:39;1.98;;;1.52;;
18838;SDS011;9548;56.920;14.804;2023-02-24T02:52:08;2.38;;;1.48;;
18838;SDS011;9548;56.920;14.804;2023-02-24T02:54:40;1.90;;;1.70;;
18838;SDS011;9548;56.920;14.804;2023-02-24T02:57:14;1.42;;;1.17;;
18838;SDS011;9548;56.920;14.804;2023-02-24T02:59:46;1.20;;;1.10;;
18838;SDS011;9548;56.920;14.804;2023-02-24T03:02:19;1.40;;;1.30;;
18838;SDS011;9548;56.920;14.804;2023-02-24T03:04:55;1.35;;;0.88;;
18838;SDS011;9548;56.920;14.804;2023-02-24T03:07:27;1.38;;;0.95;;
18838;SDS011;9548;56.920;14.804;2023-02-24T03:09:59;3.53;;;1.10;;
18838;SDS011;9548;56.920;14.804;2023-02-24T03:12:34;3.13;;;0.80;;
18838;SDS011;9548;56.920;14.804;2023-02-24T03:15:04;2.47;;;1.15;;
18838;SDS011;9548;56.920;14.804;2023-02-24T03:17:36;1.00;;;0.90;;
18838;SDS011;9548;56.920;14.804;2023-02-24T03:20:09;1.67;;;1.08;;
18838;SDS011;9548;56.920;14.804;2023-02-24T03:22:42;0.70;;;0.70;;
18838;SDS011;9548;56.920;14.804;2023-02-24T03:25:14;1.52;;;0.82;;
18838;SDS011;9548;56.920;14.804;2023-02-24T03:27:44;4.20;;;0.80;;
18838;SDS011;9548;56.920;14.804;2023-02-24T03:30:15;0.80;;;0.70;;
18838;SDS011;9548;56.920;14.804;2023-02-24T03:32:48;0.68;;;0.50;;
18838;SDS011;9548;56.920;14.804;2023-02-24T03:35:21;1.63;;;0.40;;
18838;SDS011;9548;56.920;14.804;2023-02-24T03:37:51;2.45;;;0.70;;
18838;SDS011;9548;56.920;14.804;2023-02-24T03:40:20;0.40;;;0.40;;
18838;SDS011;9548;56.920;14.804;2023-02-24T03:42:53;1.45;;;0.60;;
18838;SDS011;9548;56.920;14.804;2023-02-24T03:45:29;0.95;;;0.50;;
18838;SDS011;9548;56.920;14.804;2023-02-24T03:47:59;0.82;;;0.50;;
18838;SDS011;9548;56.920;14.804;2023-02-24T03:50:29;3.05;;;0.65;;
18838;SDS011;9548;56.920;14.804;2023-02-24T03:52:59;0.70;;;0.60;;
18838;SDS011;9548;56.920;14.804;2023-02-24T03:55:36;1.63;;;0.70;;
18838;SDS011;9548;56.920;14.804;2023-02-24T03:58:15;2.38;;;1.13;;
18838;SDS011;9548;56.920;14.804;2023-02-24T04:00:49;2.17;;;1.10;;
18838;SDS011;9548;56.920;14.804;2023-02-24T04:03:25;1.67;;;0.95;;
18838;SDS011;9548;56.920;14.804;2023-02-24T04:06:01;2.08;;;0.70;;
18838;SDS011;9548;56.920;14.804;2023-02-24T04:08:38;1.67;;;0.90;;
18838;SDS011;9548;56.920;14.804;2023-02-24T04:11:11;0.90;;;0.80;;
18838;SDS011;9548;56.920;14.804;2023-02-24T04:13:46;2.72;;;0.77;;
18838;SDS011;9548;56.920;14.804;2023-02-24T04:16:19;1.35;;;0.80;;
18838;SDS011;9548;56.920;14.804;2023-02-24T04:18:52;2.80;;;0.93;;
18838;SDS011;9548;56.920;14.804;2023-02-24T04:21:24;0.80;;;0.70;;
18838;SDS011;9548;56.920;14.804;2023-02-24T04:23:55;1.98;;;0.80;;
18838;SDS011;9548;56.920;14.804;2023-02-24T04:26:23;3.38;;;0.80;;
18838;SDS011;9548;56.920;14.804;2023-02-24T04:28:52;1.23;;;0.95;;
18838;SDS011;9548;56.920;14.804;2023-02-24T04:31:21;1.70;;;1.13;;
18838;SDS011;9548;56.920;14.804;2023-02-24T04:33:51;2.38;;;1.20;;
18838;SDS011;9548;56.920;14.804;2023-02-24T04:36:18;2.05;;;1.30;;
18838;SDS011;9548;56.920;14.804;2023-02-24T04:38:47;1.70;;;1.25;;
18838;SDS011;9548;56.920;14.804;2023-02-24T04:41:14;1.83;;;1.35;;
18838;SDS011;9548;56.920;14.804;2023-02-24T04:43:45;4.47;;;1.33;;
18838;SDS011;9548;56.920;14.804;2023-02-24T04:46:13;2.67;;;1.65;;
18838;SDS011;9548;56.920;14.804;2023-02-24T04:48:40;7.65;;;1.65;;
18838;SDS011;9548;56.920;14.804;2023-02-24T04:51:07;1.48;;;1.17;;
18838;SDS011;9548;56.920;14.804;2023-02-24T04:53:34;2.78;;;1.70;;
18838;SDS011;9548;56.920;14.804;2023-02-24T04:56:04;2.50;;;1.50;;
18838;SDS011;9548;56.920;14.804;2023-02-24T04:58:33;2.90;;;1.35;;
18838;SDS011;9548;56.920;14.804;2023-02-24T05:01:04;4.55;;;1.88;;
18838;SDS011;9548;56.920;14.804;2023-02-24T05:03:34;2.67;;;1.90;;
18838;SDS011;9548;56.920;14.804;2023-02-24T05:06:02;4.95;;;2.17;;
18838;SDS011;9548;56.920;14.804;2023-02-24T05:08:30;3.17;;;2.00;;
18838;SDS011;9548;56.920;14.804;2023-02-24T05:10:58;4.13;;;2.20;;
18838;SDS011;9548;56.920;14.804;2023-02-24T05:13:29;2.65;;;1.95;;
18838;SDS011;9548;56.920;14.804;2023-02-24T05:15:58;5.15;;;2.10;;
18838;SDS011;9548;56.920;14.804;2023-02-24T05:18:30;3.15;;;2.15;;
18838;SDS011;9548;56.920;14.804;2023-02-24T05:21:03;5.70;;;1.98;;
18838;SDS011;9548;56.920;14.804;2023-02-24T05:23:50;3.28;;;2.08;;
18838;SDS011;9548;56.920;14.804;2023-02-24T05:26:19;3.75;;;2.22;;
18838;SDS011;9548;56.920;14.804;2023-02-24T05:28:51;3.63;;;2.03;;
18838;SDS011;9548;56.920;14.804;2023-02-24T05:31:21;3.13;;;2.13;;
18838;SDS011;9548;56.920;14.804;2023-02-24T05:33:51;3.58;;;2.30;;
18838;SDS011;9548;56.920;14.804;2023-02-24T05:36:20;4.53;;;2.45;;
18838;SDS011;9548;56.920;14.804;2023-02-24T05:38:49;5.22;;;2.40;;
18838;SDS011;9548;56.920;14.804;2023-02-24T05:41:19;4.05;;;2.47;;
18838;SDS011;9548;56.920;14.804;2023-02-24T05:43:47;3.78;;;2.50;;
18838;SDS011;9548;56.920;14.804;2023-02-24T05:46:20;4.10;;;2.58;;
18838;SDS011;9548;56.920;14.804;2023-02-24T05:48:52;4.40;;;2.88;;
18838;SDS011;9548;56.920;14.804;2023-02-24T05:51:21;4.93;;;2.67;;
18838;SDS011;9548;56.920;14.804;2023-02-24T05:53:49;6.30;;;2.55;;
18838;SDS011;9548;56.920;14.804;2023-02-24T05:56:19;8.95;;;3.00;;
18838;SDS011;9548;56.920;14.804;2023-02-24T05:58:47;3.75;;;2.65;;
18838;SDS011;9548;56.920;14.804;2023-02-24T06:01:14;4.88;;;2.80;;
18838;SDS011;9548;56.920;14.804;2023-02-24T06:03:45;4.70;;;2.70;;
18838;SDS011;9548;56.920;14.804;2023-02-24T06:06:12;4.93;;;2.47;;
18838;SDS011;9548;56.920;14.804;2023-02-24T06:08:40;4.43;;;2.63;;
18838;SDS011;9548;56.920;14.804;2023-02-24T06:11:13;7.13;;;3.08;;
18838;SDS011;9548;56.920;14.804;2023-02-24T06:13:42;4.28;;;2.38;;
18838;SDS011;9548;56.920;14.804;2023-02-24T06:16:12;4.97;;;2.60;;
18838;SDS011;9548;56.920;14.804;2023-02-24T06:18:40;3.97;;;2.50;;
18838;SDS011;9548;56.920;14.804;2023-02-24T06:21:08;5.10;;;2.40;;
18838;SDS011;9548;56.920;14.804;2023-02-24T06:23:37;4.95;;;2.20;;
18838;SDS011;9548;56.920;14.804;2023-02-24T06:26:04;4.20;;;2.05;;
18838;SDS011;9548;56.920;14.804;2023-02-24T06:28:37;3.45;;;2.50;;
18838;SDS011;9548;56.920;14.804;2023-02-24T06:31:07;6.38;;;2.50;;
18838;SDS011;9548;56.920;14.804;2023-02-24T06:33:35;4.30;;;2.38;;
18838;SDS011;9548;56.920;14.804;2023-02-24T06:36:02;3.65;;;2.25;;
18838;SDS011;9548;56.920;14.804;2023-02-24T06:38:32;4.47;;;2.20;;
18838;SDS011;9548;56.920;14.804;2023-02-24T06:41:00;4.90;;;2.67;;
18838;SDS011;9548;56.920;14.804;2023-02-24T06:43:28;3.38;;;2.20;;
18838;SDS011;9548;56.920;14.804;2023-02-24T06:45:55;4.88;;;2.25;;
18838;SDS011;9548;56.920;14.804;2023-02-24T06:48:22;4.60;;;2.28;;
18838;SDS011;9548;56.920;14.804;2023-02-24T06:50:49;2.45;;;1.77;;
18838;SDS011;9548;56.920;14.804;2023-02-24T06:53:16;3.22;;;1.90;;
18838;SDS011;9548;56.920;14.804;2023-02-24T06:55:44;7.28;;;2.38;;
18838;SDS011;9548;56.920;14.804;2023-02-24T06:58:15;3.47;;;1.63;;
18838;SDS011;9548;56.920;14.804;2023-02-24T07:00:43;7.35;;;2.20;;
18838;SDS011;9548;56.920;14.804;2023-02-24T07:03:21;6.45;;;2.03;;
18838;SDS011;9548;56.920;14.804;2023-02-24T07:05:50;3.15;;;2.08;;
18838;SDS011;9548;56.920;14.804;2023-02-24T07:08:35;2.40;;;1.70;;
18838;SDS011;9548;56.920;14.804;2023-02-24T07:11:04;2.63;;;1.73;;
18838;SDS011;9548;56.920;14.804;2023-02-24T07:13:32;5.30;;;1.98;;
18838;SDS011;9548;56.920;14.804;2023-02-24T07:16:01;2.33;;;1.60;;
18838;SDS011;9548;56.920;14.804;2023-02-24T07:18:31;4.07;;;2.00;;
18838;SDS011;9548;56.920;14.804;2023-02-24T07:21:00;5.07;;;1.92;;
18838;SDS011;9548;56.920;14.804;2023-02-24T07:23:29;3.08;;;1.88;;
18838;SDS011;9548;56.920;14.804;2023-02-24T07:25:56;3.97;;;1.98;;
18838;SDS011;9548;56.920;14.804;2023-02-24T07:28:25;5.20;;;1.80;;
18838;SDS011;9548;56.920;14.804;2023-02-24T07:30:52;3.58;;;1.80;;
18838;SDS011;9548;56.920;14.804;2023-02-24T07:33:19;2.08;;;1.30;;
18838;SDS011;9548;56.920;14.804;2023-02-24T07:35:48;2.65;;;1.27;;
18838;SDS011;9548;56.920;14.804;2023-02-24T07:38:16;2.67;;;1.60;;
18838;SDS011;9548;56.920;14.804;2023-02-24T07:40:47;3.25;;;1.27;;
18838;SDS011;9548;56.920;14.804;2023-02-24T07:43:14;2.15;;;1.27;;
18838;SDS011;9548;56.920;14.804;2023-02-24T07:45:42;2.60;;;1.55;;
18838;SDS011;9548;56.920;14.804;2023-02-24T07:48:11;3.08;;;1.50;;
18838;SDS011;9548;56.920;14.804;2023-02-24T07:50:39;2.28;;;1.17;;
18838;SDS011;9548;56.920;14.804;2023-02-24T07:53:07;2.83;;;1.10;;
18838;SDS011;9548;56.920;14.804;2023-02-24T07:55:35;2.17;;;1.35;;
18838;SDS011;9548;56.920;14.804;2023-02-24T07:58:02;3.95;;;1.58;;
18838;SDS011;9548;56.920;14.804;2023-02-24T08:00:29;3.08;;;1.40;;
18838;SDS011;9548;56.920;14.804;2023-02-24T08:03:15;2.65;;;1.50;;
18838;SDS011;9548;56.920;14.804;2023-02-24T08:05:42;2.55;;;1.20;;
18838;SDS011;9548;56.920;14.804;2023-02-24T08:08:10;3.30;;;1.50;;
18838;SDS011;9548;56.920;14.804;2023-02-24T08:10:38;2.83;;;1.17;;
18838;SDS011;9548;56.920;14.804;2023-02-24T08:13:06;2.42;;;1.40;;
18838;SDS011;9548;56.920;14.804;2023-02-24T08:15:36;3.78;;;1.10;;
18838;SDS011;9548;56.920;14.804;2023-02-24T08:18:03;2.25;;;1.20;;
18838;SDS011;9548;56.920;14.804;2023-02-24T08:20:31;1.40;;;1.13;;
18838;SDS011;9548;56.920;14.804;2023-02-24T08:23:16;2.20;;;1.48;;
18838;SDS011;9548;56.920;14.804;2023-02-24T08:25:43;2.33;;;1.15;;
18838;SDS011;9548;56.920;14.804;2023-02-24T08:28:10;2.55;;;1.50;;
18838;SDS011;9548;56.920;14.804;2023-02-24T08:30:38;1.58;;;1.20;;
18838;SDS011;9548;56.920;14.804;2023-02-24T08:33:09;2.45;;;1.23;;
18838;SDS011;9548;56.920;14.804;2023-02-24T08:35:41;2.95;;;1.05;;
18838;SDS011;9548;56.920;14.804;2023-02-24T08:38:10;1.67;;;1.10;;
18838;SDS011;9548;56.920;14.804;2023-02-24T08:40:39;1.92;;;1.05;;
18838;SDS011;9548;56.920;14.804;2023-02-24T08:43:16;1.45;;;1.30;;
18838;SDS011;9548;56.920;14.804;2023-02-24T08:45:56;1.27;;;1.00;;
18838;SDS011;9548;56.920;14.804;2023-02-24T08:48:26;1.40;;;0.88;;
18838;SDS011;9548;56.920;14.804;2023-02-24T08:51:03;2.50;;;0.98;;
18838;SDS011;9548;56.920;14.804;2023-02-24T08:53:34;2.22;;;0.80;;
18838;SDS011;9548;56.920;14.804;2023-02-24T08:56:05;1.00;;;0.70;;
18838;SDS011;9548;56.920;14.804;2023-02-24T08:58:35;0.90;;;0.63;;
18838;SDS011;9548;56.920;14.804;2023-02-24T09:01:05;1.13;;;0.77;;
18838;SDS011;9548;56.920;14.804;2023-02-24T09:03:43;0.60;;;0.52;;
18838;SDS011;9548;56.920;14.804;2023-02-24T09:06:13;0.75;;;0.70;;
18838;SDS011;9548;56.920;14.804;2023-02-24T09:08:42;1.38;;;0.70;;
18838;SDS011;9548;56.920;14.804;2023-02-24T09:11:11;1.48;;;0.80;;
18838;SDS011;9548;56.920;14.804;2023-02-24T09:13:40;1.25;;;0.80;;
18838;SDS011;9548;56.920;14.804;2023-02-24T09:16:16;1.23;;;0.75;;
18838;SDS011;9548;56.920;14.804;2023-02-24T09:18:44;0.90;;;0.73;;
18838;SDS011;9548;56.920;14.804;2023-02-24T09:21:32;0.80;;;0.80;;
18838;SDS011;9548;56.920;14.804;2023-02-24T09:24:22;1.25;;;0.90;;
18838;SDS011;9548;56.920;14.804;2023-02-24T09:26:52;1.20;;;0.70;;
18838;SDS011;9548;56.920;14.804;2023-02-24T09:29:22;1.88;;;0.70;;
18838;SDS011;9548;56.920;14.804;2023-02-24T09:31:58;1.25;;;1.00;;
18838;SDS011;9548;56.920;14.804;2023-02-24T09:34:30;3.03;;;1.02;;
18838;SDS011;9548;56.920;14.804;2023-02-24T09:36:59;1.02;;;0.93;;
18838;SDS011;9548;56.920;14.804;2023-02-24T09:39:28;1.60;;;1.05;;
18838;SDS011;9548;56.920;14.804;2023-02-24T09:42:17;1.67;;;0.90;;
18838;SDS011;9548;56.920;14.804;2023-02-24T09:45:11;1.95;;;1.13;;
18838;SDS011;9548;56.920;14.804;2023-02-24T09:47:57;2.40;;;1.00;;
18838;SDS011;9548;56.920;14.804;2023-02-24T09:50:34;3.85;;;1.10;;
18838;SDS011;9548;56.920;14.804;2023-02-24T09:53:26;0.88;;;0.77;;
18838;SDS011;9548;56.920;14.804;2023-02-24T09:56:04;1.58;;;1.00;;
18838;SDS011;9548;56.920;14.804;2023-02-24T09:58:41;2.35;;;0.82;;
18838;SDS011;9548;56.920;14.804;2023-02-24T10:01:22;3.25;;;0.77;;
18838;SDS011;9548;56.920;14.804;2023-02-24T10:04:10;1.42;;;1.00;;
18838;SDS011;9548;56.920;14.804;2023-02-24T10:06:46;2.00;;;0.90;;
18838;SDS011;9548;56.920;14.804;2023-02-24T10:09:17;2.30;;;1.10;;
18838;SDS011;9548;56.920;14.804;2023-02-24T10:11:51;1.40;;;0.90;;
18838;SDS011;9548;56.920;14.804;2023-02-24T10:14:28;1.67;;;1.00;;
18838;SDS011;9548;56.920;14.804;2023-02-24T10:17:06;1.33;;;0.80;;
18838;SDS011;9548;56.920;14.804;2023-02-24T10:19:48;2.28;;;1.35;;
18838;SDS011;9548;56.920;14.804;2023-02-24T10:22:22;1.35;;;0.90;;
18838;SDS011;9548;56.920;14.804;2023-02-24T10:25:09;2.03;;;0.85;;
18838;SDS011;9548;56.920;14.804;2023-02-24T10:27:52;2.83;;;1.08;;
18838;SDS011;9548;56.920;14.804;2023-02-24T10:30:29;3.33;;;1.23;;
18838;SDS011;9548;56.920;14.804;2023-02-24T10:33:11;1.33;;;1.13;;
18838;SDS011;9548;56.920;14.804;2023-02-24T10:35:44;1.20;;;0.95;;
18838;SDS011;9548;56.920;14.804;2023-02-24T10:38:12;3.63;;;1.35;;
18838;SDS011;9548;56.920;14.804;2023-02-24T10:40:45;2.25;;;0.95;;
18838;SDS011;9548;56.920;14.804;2023-02-24T10:43:21;6.72;;;1.50;;
18838;SDS011;9548;56.920;14.804;2023-02-24T10:45:56;2.40;;;1.00;;
18838;SDS011;9548;56.920;14.804;2023-02-24T10:48:30;2.83;;;0.93;;
18838;SDS011;9548;56.920;14.804;2023-02-24T10:51:06;3.03;;;1.02;;
18838;SDS011;9548;56.920;14.804;2023-02-24T10:53:36;4.18;;;0.85;;
18838;SDS011;9548;56.920;14.804;2023-02-24T10:56:05;0.88;;;0.77;;
18838;SDS011;9548;56.920;14.804;2023-02-24T10:58:58;0.95;;;0.68;;
18838;SDS011;9548;56.920;14.804;2023-02-24T11:01:41;2.78;;;1.08;;
18838;SDS011;9548;56.920;14.804;2023-02-24T11:04:19;1.33;;;0.82;;
18838;SDS011;9548;56.920;14.804;2023-02-24T11:07:10;1.17;;;0.73;;
18838;SDS011;9548;56.920;14.804;2023-02-24T11:10:00;2.15;;;0.70;;
18838;SDS011;9548;56.920;14.804;2023-02-24T11:12:37;1.60;;;0.75;;
18838;SDS011;9548;56.920;14.804;2023-02-24T11:15:27;0.57;;;0.55;;
18838;SDS011;9548;56.920;14.804;2023-02-24T11:18:15;0.73;;;0.50;;
18838;SDS011;9548;56.920;14.804;2023-02-24T11:20:45;2.45;;;0.98;;
18838;SDS011;9548;56.920;14.804;2023-02-24T11:23:16;1.00;;;0.70;;
18838;SDS011;9548;56.920;14.804;2023-02-24T11:25:48;2.20;;;0.85;;
18838;SDS011;9548;56.920;14.804;2023-02-24T11:28:26;1.33;;;0.85;;
18838;SDS011;9548;56.920;14.804;2023-02-24T11:31:18;1.10;;;0.90;;
18838;SDS011;9548;56.920;14.804;2023-02-24T11:33:59;2.42;;;1.10;;
18838;SDS011;9548;56.920;14.804;2023-02-24T11:36:35;2.50;;;0.68;;
18838;SDS011;9548;56.920;14.804;2023-02-24T11:39:15;0.82;;;0.73;;
18838;SDS011;9548;56.920;14.804;2023-02-24T11:41:58;0.93;;;0.80;;
18838;SDS011;9548;56.920;14.804;2023-02-24T11:44:31;2.40;;;1.10;;
18838;SDS011;9548;56.920;14.804;2023-02-24T11:47:05;2.08;;;1.05;;
18838;SDS011;9548;56.920;14.804;2023-02-24T11:49:39;2.08;;;0.80;;
18838;SDS011;9548;56.920;14.804;2023-02-24T11:52:11;0.88;;;0.70;;
18838;SDS011;9548;56.920;14.804;2023-02-24T11:54:42;0.93;;;0.70;;
18838;SDS011;9548;56.920;14.804;2023-02-24T11:57:15;1.35;;;0.80;;
18838;SDS011;9548;56.920;14.804;2023-02-24T11:59:47;0.95;;;0.73;;
18838;SDS011;9548;56.920;14.804;2023-02-24T12:02:21;0.73;;;0.50;;
18838;SDS011;9548;56.920;14.804;2023-02-24T12:04:56;1.17;;;0.70;;
18838;SDS011;9548;56.920;14.804;2023-02-24T12:07:29;2.67;;;0.77;;
18838;SDS011;9548;56.920;14.804;2023-02-24T12:09:59;0.90;;;0.70;;
18838;SDS011;9548;56.920;14.804;2023-02-24T12:12:32;1.27;;;0.65;;
18838;SDS011;9548;56.920;14.804;2023-02-24T12:15:10;2.10;;;0.85;;
18838;SDS011;9548;56.920;14.804;2023-02-24T12:17:47;1.23;;;0.68;;
18838;SDS011;9548;56.920;14.804;2023-02-24T12:20:24;1.27;;;0.77;;
18838;SDS011;9548;56.920;14.804;2023-02-24T12:22:56;1.20;;;0.80;;
18838;SDS011;9548;56.920;14.804;2023-02-24T12:25:26;0.63;;;0.60;;
18838;SDS011;9548;56.920;14.804;2023-02-24T12:28:01;0.95;;;0.70;;
18838;SDS011;9548;56.920;14.804;2023-02-24T12:30:39;1.00;;;0.77;;
18838;SDS011;9548;56.920;14.804;2023-02-24T12:36:11;0.63;;;0.60;;
18838;SDS011;9548;56.920;14.804;2023-02-24T12:38:48;1.60;;;0.60;;
18838;SDS011;9548;56.920;14.804;2023-02-24T12:41:28;1.08;;;0.70;;
18838;SDS011;9548;56.920;14.804;2023-02-24T12:44:05;1.83;;;0.88;;
18838;SDS011;9548;56.920;14.804;2023-02-24T12:46:42;1.02;;;0.70;;
18838;SDS011;9548;56.920;14.804;2023-02-24T12:49:18;0.85;;;0.50;;
18838;SDS011;9548;56.920;14.804;2023-02-24T12:51:59;3.58;;;1.17;;
18838;SDS011;9548;56.920;14.804;2023-02-24T12:54:35;0.73;;;0.60;;
18838;SDS011;9548;56.920;14.804;2023-02-24T12:57:09;1.42;;;0.70;;
18838;SDS011;9548;56.920;14.804;2023-02-24T12:59:42;0.70;;;0.63;;
18838;SDS011;9548;56.920;14.804;2023-02-24T13:02:12;0.75;;;0.60;;
18838;SDS011;9548;56.920;14.804;2023-02-24T13:04:48;0.73;;;0.68;;
18838;SDS011;9548;56.920;14.804;2023-02-24T13:07:26;0.65;;;0.50;;
18838;SDS011;9548;56.920;14.804;2023-02-24T13:10:04;4.30;;;2.10;;
18838;SDS011;9548;56.920;14.804;2023-02-24T13:12:45;1.38;;;0.47;;
18838;SDS011;9548;56.920;14.804;2023-02-24T13:15:18;0.40;;;0.30;;
18838;SDS011;9548;56.920;14.804;2023-02-24T13:17:48;1.27;;;0.50;;
18838;SDS011;9548;56.920;14.804;2023-02-24T13:20:27;1.42;;;0.80;;
18838;SDS011;9548;56.920;14.804;2023-02-24T13:22:57;0.35;;;0.32;;
18838;SDS011;9548;56.920;14.804;2023-02-24T13:25:27;1.80;;;0.88;;
18838;SDS011;9548;56.920;14.804;2023-02-24T13:27:57;0.90;;;0.60;;
18838;SDS011;9548;56.920;14.804;2023-02-24T13:30:36;0.47;;;0.30;;
18838;SDS011;9548;56.920;14.804;2023-02-24T13:33:19;0.70;;;0.35;;
18838;SDS011;9548;56.920;14.804;2023-02-24T13:35:48;0.50;;;0.45;;
18838;SDS011;9548;56.920;14.804;2023-02-24T13:38:24;1.40;;;0.40;;
18838;SDS011;9548;56.920;14.804;2023-02-24T13:41:05;0.95;;;0.38;;
18838;SDS011;9548;56.920;14.804;2023-02-24T13:43:34;0.40;;;0.40;;
18838;SDS011;9548;56.920;14.804;2023-02-24T13:46:01;0.30;;;0.30;;
18838;SDS011;9548;56.920;14.804;2023-02-24T13:48:48;0.50;;;0.50;;
18838;SDS011;9548;56.920;14.804;2023-02-24T13:51:36;0.40;;;0.40;;
18838;SDS011;9548;56.920;14.804;2023-02-24T13:54:31;1.77;;;0.35;;
18838;SDS011;9548;56.920;14.804;2023-02-24T13:57:44;0.47;;;0.30;;
18838;SDS011;9548;56.920;14.804;2023-02-24T14:00:22;0.85;;;0.40;;
18838;SDS011;9548;56.920;14.804;2023-02-24T14:02:59;0.50;;;0.50;;
18838;SDS011;9548;56.920;14.804;2023-02-24T14:05:35;1.15;;;0.43;;
18838;SDS011;9548;56.920;14.804;2023-02-24T14:08:05;0.30;;;0.30;;
18838;SDS011;9548;56.920;14.804;2023-02-24T14:10:32;0.93;;;0.43;;
18838;SDS011;9548;56.920;14.804;2023-02-24T14:13:02;0.57;;;0.47;;
18838;SDS011;9548;56.920;14.804;2023-02-24T14:15:31;0.60;;;0.60;;
18838;SDS011;9548;56.920;14.804;2023-02-24T14:18:00;1.02;;;0.80;;
18838;SDS011;9548;56.920;14.804;2023-02-24T14:20:30;1.20;;;0.80;;
18838;SDS011;9548;56.920;14.804;2023-02-24T14:22:59;0.60;;;0.60;;
18838;SDS011;9548;56.920;14.804;2023-02-24T14:25:28;0.43;;;0.43;;
18838;SDS011;9548;56.920;14.804;2023-02-24T14:27:59;0.30;;;0.30;;
18838;SDS011;9548;56.920;14.804;2023-02-24T14:30:27;0.40;;;0.40;;
18838;SDS011;9548;56.920;14.804;2023-02-24T14:32:59;0.68;;;0.40;;
18838;SDS011;9548;56.920;14.804;2023-02-24T14:35:27;0.20;;;0.20;;
18838;SDS011;9548;56.920;14.804;2023-02-24T14:37:59;0.28;;;0.22;;
18838;SDS011;9548;56.920;14.804;2023-02-24T14:40:27;0.47;;;0.20;;
18838;SDS011;9548;56.920;14.804;2023-02-24T14:42:54;0.60;;;0.20;;
18838;SDS011;9548;56.920;14.804;2023-02-24T14:45:23;0.20;;;0.20;;
18838;SDS011;9548;56.920;14.804;2023-02-24T14:47:52;0.20;;;0.20;;
18838;SDS011;9548;56.920;14.804;2023-02-24T14:50:22;0.88;;;0.30;;
18838;SDS011;9548;56.920;14.804;2023-02-24T14:52:52;0.60;;;0.40;;
18838;SDS011;9548;56.920;14.804;2023-02-24T14:55:24;0.52;;;0.30;;
18838;SDS011;9548;56.920;14.804;2023-02-24T14:57:56;0.35;;;0.17;;
18838;SDS011;9548;56.920;14.804;2023-02-24T15:00:27;0.90;;;0.30;;
18838;SDS011;9548;56.920;14.804;2023-02-24T15:03:01;0.30;;;0.30;;
18838;SDS011;9548;56.920;14.804;2023-02-24T15:05:37;0.50;;;0.25;;
18838;SDS011;9548;56.920;14.804;2023-02-24T15:08:10;0.60;;;0.45;;
18838;SDS011;9548;56.920;14.804;2023-02-24T15:10:49;0.10;;;0.10;;
18838;SDS011;9548;56.920;14.804;2023-02-24T15:13:17;0.10;;;0.10;;
18838;SDS011;9548;56.920;14.804;2023-02-24T15:15:52;0.10;;;0.10;;
18838;SDS011;9548;56.920;14.804;2023-02-24T15:18:22;0.10;;;0.00;;
18838;SDS011;9548;56.920;14.804;2023-02-24T15:20:58;1.08;;;0.20;;
18838;SDS011;9548;56.920;14.804;2023-02-24T15:23:28;0.10;;;0.10;;
18838;SDS011;9548;56.920;14.804;2023-02-24T15:25:59;0.00;;;0.00;;
18838;SDS011;9548;56.920;14.804;2023-02-24T15:28:27;4.18;;;0.15;;
18838;SDS011;9548;56.920;14.804;2023-02-24T15:31:00;0.20;;;0.10;;
18838;SDS011;9548;56.920;14.804;2023-02-24T15:33:30;0.10;;;0.10;;
18838;SDS011;9548;56.920;14.804;2023-02-24T15:36:00;0.60;;;0.20;;